Terminal Aerodrome Forecast
Issued by NWS

Current Version | Previous Version | Text Only | Print | Product List | Glossary On
Versions: 1 2 3 4 5 6 7 8 9 10 11 12 13 14 15 16 17 18 19 20 21 22 23 24 25 26 27 28 29 30 31
000
FTUS45 KSLC 110242 AAA
TAFEVW
TAF AMD
KEVW 110242Z 1103/1124 15011G18KT P6SM VCSH SCT060 BKN090
     FM110500 16005KT P6SM SCT070 BKN100
     FM111800 26010KT P6SM VCSH SCT060 BKN090=

USA.gov is the U.S. government's official web portal to all federal, state and local government web resources and services.